Time;durP1;ratioP1;P1;durP2;ratioP2;P2;SDS_P1;SDS_P2;PMS_P1;PMS_P2;Temp;Humidity;BMP_temperature;BMP_pressure;BME280_temperature;BME280_humidity;BME280_pressure;Samples;Min_cycle;Max_cycle;Signal;HPM_P1;HPM_P2
2022/06/01 00:00:09;;;;;;;8.87;4.10;;;;;;;15.35;66.51;99820.91;4966252;28;20326;-67
2022/06/01 00:02:37;;;;;;;7.17;4.03;;;;;;;15.37;67.10;99816.19;4966214;28;20227;-67
2022/06/01 00:05:04;;;;;;;11.83;5.37;;;;;;;15.07;71.62;99818.97;4967346;28;20228;-67
2022/06/01 00:07:34;;;;;;;17.80;5.80;;;;;;;14.59;76.94;99810.59;4942147;28;20329;-67
2022/06/01 00:10:00;;;;;;;12.63;6.03;;;;;;;14.30;79.88;99812.22;4965457;28;20294;-67
2022/06/01 00:12:29;;;;;;;15.33;6.23;;;;;;;14.11;82.24;99815.44;4966622;28;20302;-67
2022/06/01 00:14:56;;;;;;;12.40;5.87;;;;;;;14.02;84.60;99817.34;5029302;28;20228;-68
2022/06/01 00:17:24;;;;;;;15.20;6.83;;;;;;;13.84;87.25;99825.75;4965046;28;20252;-67
2022/06/01 00:19:51;;;;;;;16.27;7.27;;;;;;;13.71;88.62;99812.97;4948931;28;20881;-67
2022/06/01 00:22:17;;;;;;;15.57;7.73;;;;;;;13.56;91.64;99797.91;4967605;28;20705;-66
2022/06/01 00:24:45;;;;;;;16.47;8.23;;;;;;;13.45;93.96;99783.94;4964452;28;20242;-65
2022/06/01 00:27:13;;;;;;;18.80;8.63;;;;;;;13.39;97.24;99767.81;4975236;28;20304;-66
2022/06/01 00:29:40;;;;;;;17.17;10.40;;;;;;;13.19;100.00;99768.25;4965172;28;20755;-65
2022/06/01 00:32:11;;;;;;;17.23;9.70;;;;;;;13.15;100.00;99766.94;5031485;28;20224;-66
2022/06/01 00:34:38;;;;;;;20.93;10.03;;;;;;;13.23;100.00;99776.78;4966493;28;20962;-67
2022/06/01 00:37:05;;;;;;;13.43;10.27;;;;;;;13.23;100.00;99787.47;4950099;28;20791;-66
2022/06/01 00:39:31;;;;;;;21.30;11.03;;;;;;;13.02;100.00;99788.91;4961871;28;21217;-67
2022/06/01 00:42:08;;;;;;;16.97;11.67;;;;;;;12.83;100.00;99800.03;4964263;28;20223;-66
2022/06/01 00:44:35;;;;;;;17.60;12.83;;;;;;;12.49;100.00;99790.53;4966196;28;20238;-65
2022/06/01 00:47:01;;;;;;;18.67;13.50;;;;;;;12.52;100.00;99762.66;4959103;28;20266;-66
2022/06/01 00:49:28;;;;;;;18.77;13.67;;;;;;;12.62;100.00;99782.81;4967088;28;20224;-66
2022/06/01 00:51:55;;;;;;;22.13;14.40;;;;;;;12.75;100.00;99808.09;4947382;28;20260;-66
2022/06/01 00:54:22;;;;;;;22.50;15.17;;;;;;;12.64;100.00;99806.63;4965124;28;20307;-68
2022/06/01 00:56:54;;;;;;;24.80;16.23;;;;;;;12.56;100.00;99796.84;4964485;28;20774;-65
2022/06/01 00:59:24;;;;;;;27.67;17.87;;;;;;;12.42;100.00;99790.38;4964413;28;20331;-65
2022/06/01 01:01:55;;;;;;;27.10;18.70;;;;;;;12.39;100.00;99790.75;4965576;28;20323;-65
2022/06/01 01:04:22;;;;;;;23.40;18.07;;;;;;;12.37;100.00;99783.91;4964903;28;20310;-65
2022/06/01 01:06:49;;;;;;;23.73;18.07;;;;;;;12.39;100.00;99768.56;4966783;28;20934;-65
2022/06/01 01:09:15;;;;;;;32.63;20.70;;;;;;;12.39;100.00;99765.91;4964295;28;20684;-65
2022/06/01 01:11:46;;;;;;;26.47;20.27;;;;;;;12.34;100.00;99766.41;4964638;28;20251;-65
2022/06/01 01:14:14;;;;;;;26.73;19.37;;;;;;;12.41;100.00;99761.22;4966543;28;20245;-66
2022/06/01 01:16:41;;;;;;;25.40;18.90;;;;;;;12.46;100.00;99750.84;4968260;28;20230;-65
2022/06/01 01:19:16;;;;;;;37.57;19.83;;;;;;;12.40;100.00;99775.56;4965639;28;20263;-65
2022/06/01 01:21:53;;;;;;;28.93;19.53;;;;;;;12.37;100.00;99767.91;4965537;28;20238;-65
2022/06/01 01:24:26;;;;;;;23.47;16.90;;;;;;;12.35;100.00;99737.91;4967071;28;20268;-66
2022/06/01 01:26:56;;;;;;;21.10;15.00;;;;;;;12.36;100.00;99720.88;4966194;28;20223;-64
2022/06/01 01:29:35;;;;;;;24.93;15.30;;;;;;;12.31;100.00;99709.91;4963315;28;20282;-65
2022/06/01 01:32:05;;;;;;;22.27;15.27;;;;;;;12.28;100.00;99713.75;4963596;28;20358;-65
2022/06/01 01:34:33;;;;;;;19.73;13.47;;;;;;;12.29;100.00;99706.56;4948322;28;20246;-65
2022/06/01 01:37:02;;;;;;;21.40;15.33;;;;;;;12.31;100.00;99717.91;4966915;28;20237;-65
2022/06/01 01:39:30;;;;;;;18.00;12.57;;;;;;;12.31;100.00;99709.91;4966367;28;20251;-66
2022/06/01 01:41:58;;;;;;;19.20;12.97;;;;;;;12.23;100.00;99714.25;4969015;28;20473;-64
2022/06/01 01:44:31;;;;;;;14.13;10.83;;;;;;;12.27;100.00;99713.91;4964274;28;20223;-65
2022/06/01 01:46:58;;;;;;;14.63;10.40;;;;;;;12.22;100.00;99711.75;4950576;28;20254;-65
2022/06/01 01:49:33;;;;;;;11.77;9.07;;;;;;;12.24;100.00;99705.28;4971953;28;20242;-66
2022/06/01 01:52:03;;;;;;;13.93;10.00;;;;;;;12.30;100.00;99713.56;4393185;28;20230;-66
2022/06/01 01:54:34;;;;;;;14.10;9.93;;;;;;;12.25;100.00;99712.25;4187293;28;20307;-68
2022/06/01 01:57:24;;;;;;;12.47;9.63;;;;;;;12.22;100.00;99701.94;4178926;28;20690;-65
2022/06/01 02:00:10;;;;;;;11.73;8.90;;;;;;;12.15;100.00;99711.66;4187385;28;20241;-67
2022/06/01 02:02:55;;;;;;;11.97;9.27;;;;;;;12.17;100.00;99706.13;4199526;28;20316;-67
2022/06/01 02:08:27;;;;;;;12.77;9.63;;;;;;;12.39;100.00;99701.88;4177670;28;20239;-67
2022/06/01 02:13:53;;;;;;;10.90;8.10;;;;;;;12.44;100.00;99688.81;4197436;28;20487;-68
2022/06/01 02:16:24;;;;;;;12.63;9.03;;;;;;;12.44;100.00;99688.81;4190307;28;23276;-66
2022/06/01 02:18:54;;;;;;;11.47;8.63;;;;;;;12.42;100.00;99688.16;4197988;28;20907;-67
2022/06/01 02:21:25;;;;;;;10.17;7.73;;;;;;;12.44;100.00;99686.97;4206090;28;20680;-67
2022/06/01 02:23:52;;;;;;;10.37;7.97;;;;;;;12.35;100.00;99680.03;4203264;28;20582;-67
2022/06/01 02:26:18;;;;;;;11.60;7.33;;;;;;;12.41;100.00;99679.34;4191358;28;21223;-66
2022/06/01 02:28:46;;;;;;;9.90;7.37;;;;;;;12.49;100.00;99675.78;4215316;28;20306;-68
2022/06/01 02:31:15;;;;;;;13.60;8.40;;;;;;;12.46;100.00;99671.63;4196682;28;20283;-66
2022/06/01 02:33:44;;;;;;;10.87;7.40;;;;;;;12.35;100.00;99668.53;4167963;28;20244;-67
2022/06/01 02:36:14;;;;;;;9.73;7.27;;;;;;;12.45;100.00;99663.78;4169442;28;20240;-67
2022/06/01 02:38:49;;;;;;;11.70;7.43;;;;;;;12.39;100.00;99659.16;4191146;28;23421;-67
2022/06/01 02:44:01;;;;;;;8.93;6.47;;;;;;;12.31;100.00;99645.88;4178333;28;21207;-67
2022/06/01 02:46:29;;;;;;;12.43;6.90;;;;;;;12.25;100.00;99637.56;4191650;28;21905;-67
2022/06/01 02:48:56;;;;;;;11.73;7.37;;;;;;;12.30;100.00;99639.69;4190376;28;21585;-68
2022/06/01 02:51:24;;;;;;;10.20;6.87;;;;;;;12.27;100.00;99631.22;4186888;28;20240;-66
2022/06/01 02:53:50;;;;;;;10.63;7.57;;;;;;;12.22;100.00;99627.25;4219101;28;20287;-67
2022/06/01 02:56:17;;;;;;;10.33;7.30;;;;;;;12.24;100.00;99629.72;4193966;28;20280;-68
2022/06/01 02:58:44;;;;;;;9.10;7.20;;;;;;;12.22;100.00;99621.06;4194557;28;20826;-67
2022/06/01 03:01:11;;;;;;;8.63;7.33;;;;;;;12.25;100.00;99624.22;4198739;28;21027;-67
2022/06/01 03:03:39;;;;;;;13.80;7.30;;;;;;;12.12;100.00;99625.78;4203807;28;20265;-66
2022/06/01 03:06:06;;;;;;;10.17;7.93;;;;;;;12.10;100.00;99623.28;4211273;28;20417;-69
2022/06/01 03:08:33;;;;;;;11.70;7.47;;;;;;;12.11;100.00;99622.31;4191878;28;20289;-68
2022/06/01 03:11:00;;;;;;;11.73;8.03;;;;;;;12.14;100.00;99615.78;4171031;28;20305;-69
2022/06/01 03:13:27;;;;;;;11.40;7.53;;;;;;;12.14;100.00;99619.28;4180230;28;20279;-66
2022/06/01 03:15:54;;;;;;;9.47;7.40;;;;;;;12.08;100.00;99614.66;4204391;28;21241;-68
2022/06/01 03:18:21;;;;;;;10.00;7.10;;;;;;;12.10;100.00;99617.97;4222942;28;20253;-65
2022/06/01 03:20:48;;;;;;;9.97;7.57;;;;;;;12.08;100.00;99620.00;4299292;28;20230;-68
2022/06/01 03:23:14;;;;;;;13.20;7.77;;;;;;;12.09;100.00;99616.31;4188270;28;21716;-68
2022/06/01 03:25:41;;;;;;;8.60;7.07;;;;;;;12.17;100.00;99616.25;4250762;28;21416;-68
2022/06/01 03:28:09;;;;;;;12.33;8.60;;;;;;;12.22;100.00;99613.06;4253071;28;20309;-67
2022/06/01 03:30:35;;;;;;;10.90;7.77;;;;;;;12.23;100.00;99607.56;4235736;28;20405;-66
2022/06/01 03:33:03;;;;;;;11.17;8.53;;;;;;;12.18;100.00;99615.25;4263731;28;20366;-67
2022/06/01 03:35:34;;;;;;;13.80;8.77;;;;;;;12.30;100.00;99606.88;4194683;28;20393;-67
2022/06/01 03:38:01;;;;;;;11.47;8.33;;;;;;;12.24;100.00;99605.72;4226631;28;20248;-70
2022/06/01 03:40:31;;;;;;;12.70;8.37;;;;;;;12.25;100.00;99616.22;4285639;28;20316;-67
2022/06/01 03:43:02;;;;;;;10.93;8.40;;;;;;;12.20;100.00;99621.25;4233867;28;20264;-67
2022/06/01 03:48:14;;;;;;;12.20;9.37;;;;;;;12.07;100.00;99646.84;4314386;28;20292;-70
2022/06/01 03:50:41;;;;;;;11.87;8.77;;;;;;;12.02;100.00;99647.34;4257037;28;20261;-69
2022/06/01 03:53:08;;;;;;;15.20;9.27;;;;;;;12.03;100.00;99646.34;4191829;28;20957;-69
2022/06/01 03:55:36;;;;;;;13.60;9.97;;;;;;;12.02;100.00;99642.03;4260801;28;21243;-65
2022/06/01 03:58:05;;;;;;;14.17;10.63;;;;;;;12.00;100.00;99644.03;4232863;28;20237;-67
2022/06/01 04:00:32;;;;;;;12.47;9.87;;;;;;;12.17;100.00;99634.94;4250488;28;22367;-67
2022/06/01 04:02:59;;;;;;;15.73;11.40;;;;;;;12.18;100.00;99639.28;4234450;28;21843;-67
2022/06/01 04:05:26;;;;;;;16.63;10.77;;;;;;;12.20;100.00;99637.25;4269342;28;20234;-68
2022/06/01 04:07:52;;;;;;;12.27;10.27;;;;;;;12.31;100.00;99633.34;4230160;28;20469;-67
2022/06/01 04:10:20;;;;;;;12.23;9.23;;;;;;;12.43;100.00;99633.78;4243374;28;20315;-69
2022/06/01 04:12:47;;;;;;;14.93;11.43;;;;;;;12.40;100.00;99629.63;4251978;28;20234;-67
2022/06/01 04:15:14;;;;;;;15.50;10.83;;;;;;;12.53;100.00;99634.41;4319349;28;21313;-68
2022/06/01 04:17:41;;;;;;;16.73;11.60;;;;;;;12.48;100.00;99636.78;4277521;28;21546;-67
2022/06/01 04:20:08;;;;;;;14.37;10.73;;;;;;;12.60;100.00;99629.19;4243902;28;20960;-67
2022/06/01 04:22:40;;;;;;;16.37;11.63;;;;;;;12.58;100.00;99631.19;4258405;28;20323;-67
2022/06/01 04:25:09;;;;;;;18.73;12.03;;;;;;;12.57;100.00;99626.84;4236943;28;20308;-68
2022/06/01 04:27:36;;;;;;;15.03;10.80;;;;;;;12.65;100.00;99638.31;4233491;28;20237;-67
2022/06/01 04:30:02;;;;;;;17.73;11.17;;;;;;;12.79;100.00;99634.03;4230758;28;22482;-66
2022/06/01 04:32:32;;;;;;;14.93;11.50;;;;;;;12.85;100.00;99630.66;4222706;28;21061;-66
2022/06/01 04:35:06;;;;;;;15.10;11.67;;;;;;;12.99;100.00;99634.34;4221303;28;20226;-68
2022/06/01 04:37:33;;;;;;;15.63;11.10;;;;;;;13.17;100.00;99642.03;4220329;28;20234;-67
2022/06/01 04:40:07;;;;;;;19.70;12.47;;;;;;;13.35;100.00;99644.41;4204698;28;20245;-67
2022/06/01 04:42:34;;;;;;;18.47;12.47;;;;;;;13.46;100.00;99652.00;4222485;28;20633;-67
2022/06/01 04:45:01;;;;;;;18.80;11.43;;;;;;;13.41;100.00;99648.19;4233786;28;22565;-67
2022/06/01 04:47:27;;;;;;;15.00;10.93;;;;;;;13.40;100.00;99651.88;4246143;28;23567;-67
2022/06/01 04:49:54;;;;;;;17.10;10.43;;;;;;;13.43;100.00;99652.34;4192869;28;20234;-67
2022/06/01 04:52:21;;;;;;;13.00;10.20;;;;;;;13.58;100.00;99644.34;4261488;28;21410;-67
2022/06/01 04:54:47;;;;;;;14.43;10.30;;;;;;;13.74;100.00;99640.63;4192912;28;20972;-68
2022/06/01 04:57:14;;;;;;;14.63;9.27;;;;;;;13.81;100.00;99649.56;4184785;28;20234;-66
2022/06/01 04:59:40;;;;;;;13.63;10.07;;;;;;;13.97;100.00;99642.38;4201134;28;25343;-66
2022/06/01 05:02:07;;;;;;;14.77;9.30;;;;;;;13.89;100.00;99643.31;4209587;28;20305;-67
2022/06/01 05:04:34;;;;;;;14.70;9.83;;;;;;;14.04;100.00;99640.63;4229409;28;22252;-66
2022/06/01 05:07:00;;;;;;;14.63;9.40;;;;;;;13.91;100.00;99647.47;4194237;28;21208;-67
2022/06/01 05:09:27;;;;;;;14.27;8.57;;;;;;;13.94;100.00;99660.47;4190990;28;22005;-67
2022/06/01 05:11:54;;;;;;;10.27;8.00;;;;;;;13.94;100.00;99662.31;4229188;28;21330;-67
2022/06/01 05:14:20;;;;;;;12.17;8.80;;;;;;;13.83;100.00;99668.94;4229638;28;21592;-67
2022/06/01 05:16:47;;;;;;;11.90;9.10;;;;;;;13.92;100.00;99678.53;4219809;28;20673;-69
2022/06/01 05:19:13;;;;;;;17.17;9.43;;;;;;;13.88;100.00;99669.25;4207329;28;20273;-66
2022/06/01 05:21:40;;;;;;;13.63;9.67;;;;;;;13.69;100.00;99664.44;4220507;28;22017;-66
2022/06/01 05:24:07;;;;;;;20.00;10.07;;;;;;;13.71;100.00;99654.38;4144435;28;21547;-68
2022/06/01 05:26:33;;;;;;;14.97;10.27;;;;;;;13.68;100.00;99647.56;4202016;28;20942;-65
2022/06/01 05:29:00;;;;;;;15.03;10.13;;;;;;;13.63;100.00;99667.84;4212435;28;20278;-65
2022/06/01 05:31:26;;;;;;;23.73;11.27;;;;;;;13.78;100.00;99670.53;4164260;28;20240;-66
2022/06/01 05:33:53;;;;;;;20.00;10.70;;;;;;;13.70;100.00;99658.91;4189866;28;20659;-66
2022/06/01 05:36:20;;;;;;;22.93;11.33;;;;;;;13.68;100.00;99660.94;4202689;28;20235;-65
2022/06/01 05:38:46;;;;;;;17.97;11.30;;;;;;;13.57;100.00;99640.00;4218361;28;20288;-64
2022/06/01 05:41:13;;;;;;;17.80;11.60;;;;;;;13.69;100.00;99622.47;4226992;28;22164;-67
2022/06/01 05:43:41;;;;;;;17.33;12.13;;;;;;;13.66;100.00;99603.31;4224929;28;21789;-65
2022/06/01 05:46:07;;;;;;;15.07;11.73;;;;;;;13.55;100.00;99590.41;4187406;28;21188;-67
2022/06/01 05:48:35;;;;;;;17.60;13.23;;;;;;;13.45;100.00;99588.84;4163556;28;20233;-68
2022/06/01 05:51:01;;;;;;;18.80;12.20;;;;;;;13.48;100.00;99591.13;4212633;28;20238;-66
2022/06/01 05:53:28;;;;;;;20.97;12.90;;;;;;;13.37;100.00;99588.94;4228359;28;21588;-65
2022/06/01 05:55:54;;;;;;;16.90;11.80;;;;;;;13.44;100.00;99568.50;4220386;28;21607;-66
2022/06/01 05:58:23;;;;;;;14.77;10.43;;;;;;;13.38;100.00;99547.84;4206453;28;20230;-68
2022/06/01 06:00:51;;;;;;;15.67;11.47;;;;;;;13.35;100.00;99566.09;4223330;28;22567;-65
2022/06/01 06:03:20;;;;;;;16.43;11.27;;;;;;;13.54;100.00;99635.03;4221374;28;20246;-68
2022/06/01 06:06:12;;;;;;;19.07;12.07;;;;;;;13.59;100.00;99655.88;4201921;28;20244;-67
2022/06/01 06:08:41;;;;;;;17.47;12.40;;;;;;;13.52;100.00;99639.72;4218121;28;25651;-64
2022/06/01 06:11:15;;;;;;;21.40;12.43;;;;;;;13.55;100.00;99642.03;4219016;28;20376;-64
2022/06/01 06:13:42;;;;;;;19.23;12.07;;;;;;;13.56;100.00;99619.63;4214682;28;20236;-65
2022/06/01 06:16:10;;;;;;;22.40;13.30;;;;;;;13.68;100.00;99611.97;4212514;28;20347;-63
2022/06/01 06:18:37;;;;;;;22.10;13.20;;;;;;;13.59;100.00;99608.56;4186845;28;20243;-64
2022/06/01 06:21:04;;;;;;;22.00;12.83;;;;;;;13.70;100.00;99604.63;4218261;28;20345;-69
2022/06/01 06:23:32;;;;;;;20.00;12.63;;;;;;;13.84;100.00;99627.84;4209321;28;20228;-66
2022/06/01 06:25:58;;;;;;;20.57;11.70;;;;;;;13.92;100.00;99641.09;4216764;28;20229;-66
2022/06/01 06:28:25;;;;;;;17.90;11.60;;;;;;;13.93;100.00;99658.00;4219820;28;20234;-65
2022/06/01 06:30:52;;;;;;;27.07;11.50;;;;;;;14.00;100.00;99666.06;4228451;28;20297;-65
2022/06/01 06:33:19;;;;;;;18.30;10.80;;;;;;;14.10;100.00;99674.66;4226251;28;22007;-66
2022/06/01 06:35:46;;;;;;;17.23;10.50;;;;;;;14.15;100.00;99682.94;4190143;28;21525;-68
2022/06/01 06:38:12;;;;;;;21.17;10.33;;;;;;;14.16;100.00;99687.28;4238213;28;26292;-66
2022/06/01 06:40:39;;;;;;;18.70;10.13;;;;;;;14.19;100.00;99688.75;4243440;28;20246;-65
2022/06/01 06:43:05;;;;;;;17.43;10.13;;;;;;;14.20;100.00;99680.53;4224325;28;20640;-65
2022/06/01 06:45:32;;;;;;;19.47;9.47;;;;;;;14.28;100.00;99677.78;4207046;28;20353;-64
2022/06/01 06:47:59;;;;;;;16.80;10.33;;;;;;;14.34;100.00;99673.50;4211596;28;20269;-66
2022/06/01 06:50:25;;;;;;;12.80;9.47;;;;;;;14.35;100.00;99667.97;4181351;28;22267;-66
2022/06/01 06:53:12;;;;;;;17.97;10.30;;;;;;;14.24;100.00;99676.47;4218424;28;20432;-65
2022/06/01 06:55:39;;;;;;;15.57;10.13;;;;;;;14.27;100.00;99670.75;4201305;28;20241;-66
2022/06/01 06:58:08;;;;;;;14.03;9.07;;;;;;;14.42;100.00;99668.06;4220171;28;21383;-66
2022/06/01 07:00:35;;;;;;;14.03;9.77;;;;;;;14.39;100.00;99667.59;4200868;28;20234;-66
2022/06/01 07:03:01;;;;;;;20.63;10.77;;;;;;;14.33;100.00;99656.63;4224642;28;20272;-68
2022/06/01 07:08:13;;;;;;;14.50;9.37;;;;;;;14.45;100.00;99672.19;4222003;28;21176;-67
2022/06/01 07:10:40;;;;;;;18.60;9.87;;;;;;;14.58;100.00;99680.38;4213318;28;20231;-66
2022/06/01 07:13:06;;;;;;;14.97;9.10;;;;;;;14.58;100.00;99683.06;4221080;28;20309;-67
2022/06/01 07:15:33;;;;;;;18.00;10.17;;;;;;;14.60;100.00;99675.66;4235901;28;21028;-67
2022/06/01 07:18:00;;;;;;;14.73;8.63;;;;;;;14.73;100.00;99675.00;4215672;28;20681;-68
2022/06/01 07:20:26;;;;;;;15.40;9.17;;;;;;;14.77;100.00;99676.25;4181992;28;20234;-67
2022/06/01 07:22:55;;;;;;;13.57;8.67;;;;;;;14.74;100.00;99666.75;4223646;28;20224;-67
2022/06/01 07:25:22;;;;;;;18.23;9.37;;;;;;;14.90;100.00;99676.38;4214766;28;23043;-65
2022/06/01 07:27:51;;;;;;;12.63;8.83;;;;;;;14.91;100.00;99672.72;4226189;28;20357;-64
2022/06/01 07:30:18;;;;;;;15.77;8.13;;;;;;;15.02;100.00;99674.03;4206720;28;20238;-65
2022/06/01 07:32:46;;;;;;;14.97;8.93;;;;;;;15.18;100.00;99664.88;4227248;28;20424;-66
2022/06/01 07:35:13;;;;;;;16.70;9.40;;;;;;;15.11;100.00;99667.50;4199587;28;20234;-67
2022/06/01 07:43:12;;;;;;;15.20;9.00;;;;;;;15.38;99.28;99673.06;4255761;28;20320;-65
2022/06/01 07:45:41;;;;;;;14.43;9.27;;;;;;;15.52;97.43;99666.81;4228893;28;20236;-68
2022/06/01 07:48:08;;;;;;;14.40;8.53;;;;;;;15.73;98.08;99657.03;4216153;28;20238;-66
2022/06/01 07:50:55;;;;;;;12.03;7.53;;;;;;;15.83;93.24;99660.19;4187250;28;20309;-65
2022/06/01 07:53:22;;;;;;;12.67;7.43;;;;;;;15.86;91.84;99665.16;4177221;28;20238;-67
2022/06/01 07:55:48;;;;;;;12.73;7.60;;;;;;;15.74;94.87;99661.38;4182368;28;20362;-65
2022/06/01 07:58:15;;;;;;;12.37;7.50;;;;;;;15.59;94.73;99669.50;4189022;28;22697;-67
2022/06/01 08:00:42;;;;;;;11.60;8.47;;;;;;;15.64;98.89;99683.16;4192137;28;20293;-66
2022/06/01 08:03:10;;;;;;;10.00;7.13;;;;;;;15.82;93.75;99685.34;4200029;28;20241;-69
2022/06/01 08:05:37;;;;;;;11.70;7.57;;;;;;;15.89;92.83;99693.44;4223672;28;20357;-66
2022/06/01 08:08:04;;;;;;;12.27;7.50;;;;;;;15.82;93.01;99685.34;4164643;28;20317;-67
2022/06/01 08:10:30;;;;;;;16.00;8.00;;;;;;;15.66;94.76;99685.63;4188423;28;20336;-68
2022/06/01 08:13:06;;;;;;;11.77;7.80;;;;;;;15.76;92.42;99691.53;4211019;28;20921;-67
2022/06/01 08:15:46;;;;;;;11.10;7.87;;;;;;;15.79;93.12;99694.63;4175295;28;20626;-65
2022/06/01 08:18:16;;;;;;;12.37;8.20;;;;;;;15.81;94.38;99683.72;4177863;28;20230;-67
2022/06/01 08:20:43;;;;;;;12.87;8.67;;;;;;;15.73;95.78;99683.84;4187548;28;20340;-67
2022/06/01 08:23:17;;;;;;;18.03;9.60;;;;;;;15.60;98.50;99685.41;4181102;28;20359;-68
2022/06/01 08:25:45;;;;;;;16.80;9.27;;;;;;;15.53;99.16;99681.84;4173898;28;20231;-66
2022/06/01 08:28:12;;;;;;;15.67;9.03;;;;;;;15.45;99.38;99667.75;4182017;28;20242;-68
2022/06/01 08:30:39;;;;;;;15.40;8.63;;;;;;;15.44;97.57;99663.44;4170734;28;20292;-67
2022/06/01 08:33:06;;;;;;;16.57;8.50;;;;;;;15.74;96.83;99672.94;4204456;28;20271;-66
2022/06/01 08:35:38;;;;;;;16.67;9.33;;;;;;;15.96;93.34;99664.78;4256691;28;20228;-67
2022/06/01 08:38:05;;;;;;;17.00;7.77;;;;;;;16.30;88.99;99671.16;4249738;28;20319;-68
2022/06/01 08:40:38;;;;;;;11.03;6.70;;;;;;;16.55;86.85;99660.66;4279829;28;20307;-67
2022/06/01 08:43:11;;;;;;;11.10;5.83;;;;;;;16.64;84.44;99664.81;4223545;28;20232;-68
2022/06/01 08:45:39;;;;;;;10.03;5.63;;;;;;;16.72;85.39;99670.03;4282606;28;20233;-68
2022/06/01 08:48:06;;;;;;;11.57;5.93;;;;;;;16.83;83.96;99664.09;4169822;28;20231;-68
2022/06/01 08:50:36;;;;;;;9.27;5.70;;;;;;;16.63;83.89;99647.06;4185434;28;20230;-65
2022/06/01 08:53:06;;;;;;;6.63;4.50;;;;;;;16.31;84.55;99633.34;4193159;28;20398;-64
2022/06/01 08:55:54;;;;;;;13.13;5.50;;;;;;;16.32;86.50;99632.31;4183533;28;21181;-67
2022/06/01 08:58:32;;;;;;;12.67;5.40;;;;;;;16.31;84.83;99630.66;4198655;28;20263;-68
2022/06/01 09:01:05;;;;;;;8.03;4.90;;;;;;;16.37;84.33;99624.50;4252431;28;20599;-67
2022/06/01 09:03:38;;;;;;;11.30;6.77;;;;;;;16.33;87.29;99635.84;4186196;28;21046;-67
2022/06/01 09:06:16;;;;;;;9.57;6.10;;;;;;;16.60;86.37;99655.50;4205502;28;20354;-71
2022/06/01 09:08:50;;;;;;;8.73;5.30;;;;;;;16.78;84.22;99658.44;4233726;28;22259;-68
2022/06/01 09:11:25;;;;;;;8.73;5.63;;;;;;;16.68;85.81;99658.84;4216797;28;21594;-67
2022/06/01 09:14:12;;;;;;;11.23;6.23;;;;;;;16.76;87.42;99663.19;4241623;28;20227;-68
2022/06/01 09:16:41;;;;;;;10.33;5.53;;;;;;;16.96;84.37;99670.50;4392565;28;20233;-67
2022/06/01 09:19:29;;;;;;;8.13;5.70;;;;;;;17.35;83.36;99674.22;4230529;28;21518;-68
2022/06/01 09:24:49;;;;;;;9.10;4.30;;;;;;;17.77;79.38;99672.09;4296017;28;20353;-68
2022/06/01 09:27:16;;;;;;;10.57;4.13;;;;;;;17.71;78.76;99668.38;4273908;28;21717;-67
2022/06/01 09:29:50;;;;;;;7.33;4.00;;;;;;;17.55;79.42;99669.63;4284197;28;20301;-67
2022/06/01 09:32:32;;;;;;;8.07;3.57;;;;;;;17.58;79.70;99674.59;4244079;28;21928;-67
2022/06/01 09:35:07;;;;;;;5.83;3.37;;;;;;;17.32;79.32;99674.63;4239015;28;20281;-67
2022/06/01 09:37:36;;;;;;;10.67;3.30;;;;;;;17.35;79.21;99674.22;4263907;28;20766;-69
2022/06/01 09:40:23;;;;;;;5.63;3.20;;;;;;;17.33;78.90;99670.94;4273276;28;22949;-69
2022/06/01 09:42:52;;;;;;;6.90;3.70;;;;;;;17.44;79.23;99679.19;4230288;28;20717;-67
2022/06/01 09:45:26;;;;;;;4.67;2.47;;;;;;;17.48;78.48;99677.72;4672795;22;20239;-72
2022/06/01 09:47:54;;;;;;;8.10;3.27;;;;;;;17.71;78.98;99684.53;4896790;28;20320;-72
2022/06/01 09:50:24;;;;;;;4.77;2.70;;;;;;;17.71;77.76;99695.28;4899886;28;20374;-73
2022/06/01 09:52:57;;;;;;;6.10;2.77;;;;;;;17.70;77.69;99694.47;4907001;28;20229;-71
2022/06/01 09:55:25;;;;;;;3.73;2.70;;;;;;;17.81;76.32;99695.69;4901725;28;20225;-72
2022/06/01 09:58:07;;;;;;;4.03;2.70;;;;;;;17.81;77.49;99700.25;4907570;28;20562;-72
2022/06/01 10:06:30;;;;;;;6.87;3.20;;;;;;;18.01;76.33;99703.75;4909348;28;20952;-72
2022/06/01 10:09:03;;;;;;;6.23;3.30;;;;;;;18.12;75.75;99703.09;4908399;28;20240;-72
2022/06/01 10:11:37;;;;;;;3.50;2.70;;;;;;;17.99;76.29;99696.91;4913283;28;20348;-71
2022/06/01 10:14:14;;;;;;;5.73;3.33;;;;;;;18.06;76.48;99708.50;4910903;28;20230;-73
2022/06/01 10:17:09;;;;;;;7.07;3.10;;;;;;;18.17;76.19;99715.91;4892967;28;20271;-72
2022/06/01 10:19:44;;;;;;;6.70;3.17;;;;;;;18.24;75.55;99710.47;4940403;28;21629;-74
2022/06/01 10:22:17;;;;;;;5.20;2.83;;;;;;;18.27;75.45;99710.09;4941608;28;20658;-72
2022/06/01 10:24:54;;;;;;;6.00;2.90;;;;;;;18.40;75.50;99710.00;4906745;28;20226;-72
2022/06/01 10:27:28;;;;;;;7.83;3.07;;;;;;;18.60;74.29;99706.41;4908220;28;20918;-71
2022/06/01 10:30:17;;;;;;;7.47;3.07;;;;;;;18.90;72.81;99699.41;4924493;28;20229;-73
2022/06/01 10:33:06;;;;;;;8.60;3.87;;;;;;;18.82;72.68;99699.66;4910365;28;20230;-72
2022/06/01 10:36:00;;;;;;;5.30;2.73;;;;;;;18.78;71.50;99709.25;4907183;28;20226;-71
2022/06/01 10:38:35;;;;;;;7.90;2.77;;;;;;;18.72;71.93;99707.38;4910973;28;20240;-72
2022/06/01 10:41:07;;;;;;;4.73;2.90;;;;;;;19.01;71.45;99702.44;4991177;28;20233;-72
2022/06/01 10:43:41;;;;;;;5.47;2.90;;;;;;;19.24;70.56;99699.16;4905499;28;20287;-75
2022/06/01 10:46:11;;;;;;;9.63;3.17;;;;;;;19.14;69.21;99700.47;4920571;28;20229;-73
2022/06/01 10:49:22;;;;;;;7.27;2.73;;;;;;;19.04;69.79;99697.47;4929179;28;20233;-71
2022/06/01 10:52:29;;;;;;;12.00;3.10;;;;;;;19.14;69.34;99696.97;4937724;28;20298;-73
2022/06/01 10:55:14;;;;;;;7.90;2.57;;;;;;;19.39;68.87;99700.50;4922225;28;20232;-73
2022/06/01 10:57:43;;;;;;;3.73;2.43;;;;;;;19.52;67.62;99699.53;4937820;28;20363;-74
2022/06/01 11:00:17;;;;;;;6.27;2.73;;;;;;;19.27;68.59;99694.16;4909475;28;20318;-72
2022/06/01 11:03:03;;;;;;;9.37;3.10;;;;;;;19.16;68.44;99701.09;4929201;28;20241;-73
2022/06/01 11:05:59;;;;;;;4.50;2.50;;;;;;;19.14;68.90;99700.47;4910302;28;20398;-73
2022/06/01 11:08:47;;;;;;;4.63;2.33;;;;;;;19.08;68.74;99700.53;4902389;28;20413;-71
2022/06/01 11:11:23;;;;;;;4.87;3.17;;;;;;;19.27;68.27;99699.56;4924356;28;20243;-71
2022/06/01 11:14:14;;;;;;;4.20;2.10;;;;;;;19.50;67.86;99696.25;4927356;28;20229;-70
2022/06/01 11:17:01;;;;;;;3.80;1.77;;;;;;;19.74;64.39;99691.91;4927933;28;20664;-71
2022/06/01 11:19:41;;;;;;;9.43;2.10;;;;;;;19.93;62.08;99692.75;4928171;28;20316;-70
2022/06/01 11:22:22;;;;;;;4.87;2.20;;;;;;;20.10;62.61;99690.25;4918798;28;20474;-69
2022/06/01 11:24:56;;;;;;;5.93;2.07;;;;;;;20.22;61.24;99677.63;4923167;28;20221;-72
2022/06/01 11:27:46;;;;;;;3.83;2.00;;;;;;;20.41;61.38;99677.63;4912600;28;20794;-72
2022/06/01 11:30:18;;;;;;;7.27;2.23;;;;;;;20.32;60.87;99673.56;4927998;28;20469;-71
2022/06/01 11:32:57;;;;;;;4.13;2.00;;;;;;;20.17;60.24;99677.50;4930602;28;20228;-72
2022/06/01 11:35:33;;;;;;;9.87;1.87;;;;;;;20.30;61.57;99681.94;4935147;28;20704;-72
2022/06/01 11:38:09;;;;;;;5.00;1.80;;;;;;;20.34;60.07;99676.88;4928143;28;20779;-73
2022/06/01 11:40:59;;;;;;;6.83;2.10;;;;;;;20.18;58.63;99681.00;4925690;28;20335;-71
2022/06/01 11:43:38;;;;;;;6.90;2.00;;;;;;;19.97;60.35;99672.34;4924031;28;20233;-70
2022/06/01 11:46:20;;;;;;;5.90;2.40;;;;;;;20.04;60.45;99672.25;4928972;28;20345;-69
2022/06/01 11:48:53;;;;;;;7.73;2.13;;;;;;;20.03;60.54;99676.00;4927580;28;20755;-72
2022/06/01 11:51:41;;;;;;;7.13;2.77;;;;;;;19.88;60.62;99680.94;4927149;28;20711;-71
2022/06/01 11:54:28;;;;;;;9.33;2.40;;;;;;;19.70;63.09;99677.19;4935406;28;20252;-71
2022/06/01 11:57:00;;;;;;;8.93;2.30;;;;;;;19.67;63.62;99682.19;4929499;28;20229;-74
2022/06/01 11:59:36;;;;;;;5.23;1.90;;;;;;;19.43;65.35;99675.75;4930023;28;20224;-72
2022/06/01 12:02:44;;;;;;;3.93;1.80;;;;;;;18.57;64.35;99675.34;4927594;28;20229;-72
2022/06/01 12:05:20;;;;;;;5.53;2.33;;;;;;;18.49;65.13;99668.31;4929186;28;20973;-73